sensor_id;sensor_type;location;lat;lon;timestamp;pressure;altitude;pressure_sealevel;temperature;humidity
60832;BME280;46665;51.558;-0.448;2023-02-18T00:00:25;101756.47;;;11.01;100.00
60832;BME280;46665;51.558;-0.448;2023-02-18T00:03:09;101752.59;;;10.97;100.00
60832;BME280;46665;51.558;-0.448;2023-02-18T00:05:53;101743.34;;;10.98;100.00
60832;BME280;46665;51.558;-0.448;2023-02-18T00:08:37;101748.53;;;11.00;100.00
60832;BME280;46665;51.558;-0.448;2023-02-18T00:11:21;101747.66;;;10.94;100.00
60832;BME280;46665;51.558;-0.448;2023-02-18T00:14:12;101734.63;;;10.96;100.00
60832;BME280;46665;51.558;-0.448;2023-02-18T00:16:56;101741.13;;;10.95;100.00
60832;BME280;46665;51.558;-0.448;2023-02-18T00:19:40;101735.94;;;10.94;100.00
60832;BME280;46665;51.558;-0.448;2023-02-18T00:22:24;101745.97;;;10.88;100.00
60832;BME280;46665;51.558;-0.448;2023-02-18T00:25:08;101749.25;;;10.90;100.00
60832;BME280;46665;51.558;-0.448;2023-02-18T00:27:52;101739.13;;;10.85;100.00
60832;BME280;46665;51.558;-0.448;2023-02-18T00:30:39;101740.72;;;10.81;100.00
60832;BME280;46665;51.558;-0.448;2023-02-18T00:33:23;101734.31;;;10.71;100.00
60832;BME280;46665;51.558;-0.448;2023-02-18T00:36:11;101722.84;;;10.63;100.00
60832;BME280;46665;51.558;-0.448;2023-02-18T00:38:58;101735.25;;;10.54;100.00
60832;BME280;46665;51.558;-0.448;2023-02-18T00:41:42;101727.78;;;10.45;100.00
60832;BME280;46665;51.558;-0.448;2023-02-18T00:44:26;101726.31;;;10.37;100.00
60832;BME280;46665;51.558;-0.448;2023-02-18T00:47:10;101722.97;;;10.30;100.00
60832;BME280;46665;51.558;-0.448;2023-02-18T00:49:54;101713.88;;;10.24;100.00
60832;BME280;46665;51.558;-0.448;2023-02-18T00:52:38;101713.81;;;10.19;100.00
60832;BME280;46665;51.558;-0.448;2023-02-18T00:55:22;101717.06;;;10.16;100.00
60832;BME280;46665;51.558;-0.448;2023-02-18T00:58:06;101715.66;;;10.13;100.00
60832;BME280;46665;51.558;-0.448;2023-02-18T01:00:51;101711.28;;;10.12;100.00
60832;BME280;46665;51.558;-0.448;2023-02-18T01:03:35;101711.78;;;10.09;100.00
60832;BME280;46665;51.558;-0.448;2023-02-18T01:06:20;101713.69;;;10.09;100.00
60832;BME280;46665;51.558;-0.448;2023-02-18T01:09:05;101707.69;;;10.07;100.00
60832;BME280;46665;51.558;-0.448;2023-02-18T01:11:49;101709.56;;;10.06;100.00
60832;BME280;46665;51.558;-0.448;2023-02-18T01:14:33;101694.59;;;10.04;100.00
60832;BME280;46665;51.558;-0.448;2023-02-18T01:17:17;101684.53;;;10.04;100.00
60832;BME280;46665;51.558;-0.448;2023-02-18T01:20:00;101678.50;;;10.02;100.00
60832;BME280;46665;51.558;-0.448;2023-02-18T01:22:44;101681.81;;;10.04;100.00
60832;BME280;46665;51.558;-0.448;2023-02-18T01:25:28;101687.25;;;10.04;100.00
60832;BME280;46665;51.558;-0.448;2023-02-18T01:28:13;101681.00;;;10.04;100.00
60832;BME280;46665;51.558;-0.448;2023-02-18T01:30:57;101688.91;;;10.05;100.00
60832;BME280;46665;51.558;-0.448;2023-02-18T01:33:42;101698.94;;;10.05;100.00
60832;BME280;46665;51.558;-0.448;2023-02-18T01:36:26;101689.22;;;10.09;100.00
60832;BME280;46665;51.558;-0.448;2023-02-18T01:39:10;101694.66;;;10.09;100.00
60832;BME280;46665;51.558;-0.448;2023-02-18T01:41:55;101688.13;;;10.10;100.00
60832;BME280;46665;51.558;-0.448;2023-02-18T01:44:39;101692.19;;;10.07;100.00
60832;BME280;46665;51.558;-0.448;2023-02-18T01:47:23;101694.16;;;10.12;100.00
60832;BME280;46665;51.558;-0.448;2023-02-18T01:50:07;101699.84;;;10.10;100.00
60832;BME280;46665;51.558;-0.448;2023-02-18T01:52:52;101704.22;;;10.11;100.00
60832;BME280;46665;51.558;-0.448;2023-02-18T01:55:37;101703.38;;;10.11;100.00
60832;BME280;46665;51.558;-0.448;2023-02-18T01:58:22;101701.72;;;10.10;100.00
60832;BME280;46665;51.558;-0.448;2023-02-18T02:01:07;101710.41;;;10.07;100.00
60832;BME280;46665;51.558;-0.448;2023-02-18T02:03:52;101695.22;;;10.11;100.00
60832;BME280;46665;51.558;-0.448;2023-02-18T02:06:36;101694.66;;;10.09;100.00
60832;BME280;46665;51.558;-0.448;2023-02-18T02:09:22;101719.22;;;9.97;100.00
60832;BME280;46665;51.558;-0.448;2023-02-18T02:12:39;101700.50;;;9.79;100.00
60832;BME280;46665;51.558;-0.448;2023-02-18T02:15:40;101699.19;;;9.64;100.00
60832;BME280;46665;51.558;-0.448;2023-02-18T02:34:39;101654.50;;;9.55;100.00
60832;BME280;46665;51.558;-0.448;2023-02-18T02:37:40;101665.09;;;9.57;100.00
60832;BME280;46665;51.558;-0.448;2023-02-18T02:44:14;101660.00;;;9.60;100.00
60832;BME280;46665;51.558;-0.448;2023-02-18T02:47:08;101648.63;;;9.63;100.00
60832;BME280;46665;51.558;-0.448;2023-02-18T02:50:05;101639.97;;;9.66;100.00
60832;BME280;46665;51.558;-0.448;2023-02-18T02:52:57;101634.31;;;9.68;100.00
60832;BME280;46665;51.558;-0.448;2023-02-18T02:55:43;101619.56;;;9.64;100.00
60832;BME280;46665;51.558;-0.448;2023-02-18T02:58:26;101634.88;;;9.70;100.00
60832;BME280;46665;51.558;-0.448;2023-02-18T03:19:34;101605.91;;;9.59;100.00
60832;BME280;46665;51.558;-0.448;2023-02-18T03:22:24;101602.38;;;9.58;100.00
60832;BME280;46665;51.558;-0.448;2023-02-18T03:25:10;101608.03;;;9.57;100.00
60832;BME280;46665;51.558;-0.448;2023-02-18T03:28:00;101611.91;;;9.61;100.00
60832;BME280;46665;51.558;-0.448;2023-02-18T03:30:50;101602.94;;;9.60;100.00
60832;BME280;46665;51.558;-0.448;2023-02-18T03:33:37;101590.94;;;9.56;100.00
60832;BME280;46665;51.558;-0.448;2023-02-18T03:36:23;101594.72;;;9.55;100.00
60832;BME280;46665;51.558;-0.448;2023-02-18T03:39:13;101585.13;;;9.47;100.00
60832;BME280;46665;51.558;-0.448;2023-02-18T03:41:57;101589.16;;;9.45;100.00
60832;BME280;46665;51.558;-0.448;2023-02-18T03:44:41;101579.63;;;9.42;100.00
60832;BME280;46665;51.558;-0.448;2023-02-18T03:47:25;101582.06;;;9.44;100.00
60832;BME280;46665;51.558;-0.448;2023-02-18T03:50:10;101581.47;;;9.42;100.00
60832;BME280;46665;51.558;-0.448;2023-02-18T03:52:54;101570.88;;;9.40;100.00
60832;BME280;46665;51.558;-0.448;2023-02-18T03:55:38;101571.13;;;9.39;100.00
60832;BME280;46665;51.558;-0.448;2023-02-18T03:58:21;101560.94;;;9.29;100.00
60832;BME280;46665;51.558;-0.448;2023-02-18T04:01:05;101555.03;;;9.32;100.00
60832;BME280;46665;51.558;-0.448;2023-02-18T04:03:49;101559.94;;;9.35;100.00
60832;BME280;46665;51.558;-0.448;2023-02-18T04:06:33;101558.94;;;9.41;100.00
60832;BME280;46665;51.558;-0.448;2023-02-18T04:09:17;101546.69;;;9.39;100.00
60832;BME280;46665;51.558;-0.448;2023-02-18T04:12:01;101554.00;;;9.38;100.00
60832;BME280;46665;51.558;-0.448;2023-02-18T04:14:45;101553.19;;;9.38;100.00
60832;BME280;46665;51.558;-0.448;2023-02-18T04:17:29;101552.09;;;9.39;100.00
60832;BME280;46665;51.558;-0.448;2023-02-18T04:20:13;101543.38;;;9.37;100.00
60832;BME280;46665;51.558;-0.448;2023-02-18T04:22:57;101546.38;;;9.35;100.00
60832;BME280;46665;51.558;-0.448;2023-02-18T04:25:40;101543.06;;;9.33;100.00
60832;BME280;46665;51.558;-0.448;2023-02-18T04:28:24;101547.19;;;9.36;100.00
60832;BME280;46665;51.558;-0.448;2023-02-18T04:31:08;101548.00;;;9.36;100.00
60832;BME280;46665;51.558;-0.448;2023-02-18T04:33:54;101547.50;;;9.39;100.00
60832;BME280;46665;51.558;-0.448;2023-02-18T04:36:38;101551.06;;;9.40;100.00
60832;BME280;46665;51.558;-0.448;2023-02-18T04:39:22;101556.22;;;9.41;100.00
60832;BME280;46665;51.558;-0.448;2023-02-18T04:42:06;101546.44;;;9.40;100.00
60832;BME280;46665;51.558;-0.448;2023-02-18T04:44:52;101545.69;;;9.45;100.00
60832;BME280;46665;51.558;-0.448;2023-02-18T04:47:37;101535.88;;;9.44;100.00
60832;BME280;46665;51.558;-0.448;2023-02-18T04:50:21;101549.78;;;9.47;100.00
60832;BME280;46665;51.558;-0.448;2023-02-18T04:53:05;101547.31;;;9.46;100.00
60832;BME280;46665;51.558;-0.448;2023-02-18T04:55:51;101545.41;;;9.46;100.00
60832;BME280;46665;51.558;-0.448;2023-02-18T04:58:35;101537.03;;;9.48;100.00
60832;BME280;46665;51.558;-0.448;2023-02-18T05:01:19;101546.22;;;9.47;100.00
60832;BME280;46665;51.558;-0.448;2023-02-18T05:04:03;101545.19;;;9.48;100.00
60832;BME280;46665;51.558;-0.448;2023-02-18T05:06:47;101539.47;;;9.49;100.00
60832;BME280;46665;51.558;-0.448;2023-02-18T05:09:31;101552.31;;;9.54;100.00
60832;BME280;46665;51.558;-0.448;2023-02-18T05:12:15;101541.72;;;9.52;100.00
60832;BME280;46665;51.558;-0.448;2023-02-18T05:14:59;101553.91;;;9.50;100.00
60832;BME280;46665;51.558;-0.448;2023-02-18T05:17:43;101543.59;;;9.52;100.00
60832;BME280;46665;51.558;-0.448;2023-02-18T05:20:26;101540.06;;;9.51;100.00
60832;BME280;46665;51.558;-0.448;2023-02-18T05:23:10;101543.84;;;9.50;100.00
60832;BME280;46665;51.558;-0.448;2023-02-18T05:25:54;101539.81;;;9.53;100.00
60832;BME280;46665;51.558;-0.448;2023-02-18T05:28:38;101550.16;;;9.56;100.00
60832;BME280;46665;51.558;-0.448;2023-02-18T05:31:22;101552.66;;;9.58;100.00
60832;BME280;46665;51.558;-0.448;2023-02-18T05:34:06;101548.25;;;9.57;100.00
60832;BME280;46665;51.558;-0.448;2023-02-18T05:36:50;101551.25;;;9.55;100.00
60832;BME280;46665;51.558;-0.448;2023-02-18T05:39:34;101555.94;;;9.60;100.00
60832;BME280;46665;51.558;-0.448;2023-02-18T05:42:18;101550.75;;;9.58;100.00
60832;BME280;46665;51.558;-0.448;2023-02-18T05:45:03;101540.38;;;9.55;100.00
60832;BME280;46665;51.558;-0.448;2023-02-18T05:47:48;101530.63;;;9.59;100.00
60832;BME280;46665;51.558;-0.448;2023-02-18T05:50:32;101539.06;;;9.58;100.00
60832;BME280;46665;51.558;-0.448;2023-02-18T05:53:16;101523.81;;;9.57;100.00
60832;BME280;46665;51.558;-0.448;2023-02-18T05:56:00;101526.88;;;9.60;100.00
60832;BME280;46665;51.558;-0.448;2023-02-18T05:58:44;101525.78;;;9.61;100.00
60832;BME280;46665;51.558;-0.448;2023-02-18T06:01:28;101522.25;;;9.61;100.00
60832;BME280;46665;51.558;-0.448;2023-02-18T06:04:13;101530.69;;;9.64;100.00
60832;BME280;46665;51.558;-0.448;2023-02-18T06:06:57;101529.06;;;9.63;100.00
60832;BME280;46665;51.558;-0.448;2023-02-18T06:09:41;101526.94;;;9.65;100.00
60832;BME280;46665;51.558;-0.448;2023-02-18T06:12:25;101517.13;;;9.64;100.00
60832;BME280;46665;51.558;-0.448;2023-02-18T06:15:09;101524.22;;;9.65;100.00
60832;BME280;46665;51.558;-0.448;2023-02-18T06:17:53;101514.41;;;9.64;100.00
60832;BME280;46665;51.558;-0.448;2023-02-18T06:20:38;101512.81;;;9.68;100.00
60832;BME280;46665;51.558;-0.448;2023-02-18T06:23:23;101497.66;;;9.72;100.00
60832;BME280;46665;51.558;-0.448;2023-02-18T06:26:07;101504.16;;;9.71;100.00
60832;BME280;46665;51.558;-0.448;2023-02-18T06:28:50;101505.81;;;9.72;100.00
60832;BME280;46665;51.558;-0.448;2023-02-18T06:31:34;101501.44;;;9.71;100.00
60832;BME280;46665;51.558;-0.448;2023-02-18T06:34:18;101510.75;;;9.75;100.00
60832;BME280;46665;51.558;-0.448;2023-02-18T06:37:02;101491.19;;;9.79;100.00
60832;BME280;46665;51.558;-0.448;2023-02-18T06:39:46;101500.97;;;9.80;100.00
60832;BME280;46665;51.558;-0.448;2023-02-18T06:42:30;101497.72;;;9.77;100.00
60832;BME280;46665;51.558;-0.448;2023-02-18T06:45:14;101504.03;;;9.83;100.00
60832;BME280;46665;51.558;-0.448;2023-02-18T06:47:58;101493.41;;;9.82;100.00
60832;BME280;46665;51.558;-0.448;2023-02-18T06:50:42;101497.25;;;9.86;100.00
60832;BME280;46665;51.558;-0.448;2023-02-18T06:53:27;101495.06;;;9.83;100.00
60832;BME280;46665;51.558;-0.448;2023-02-18T06:56:10;101500.50;;;9.83;100.00
60832;BME280;46665;51.558;-0.448;2023-02-18T06:58:55;101486.91;;;9.83;100.00
60832;BME280;46665;51.558;-0.448;2023-02-18T07:01:39;101499.41;;;9.84;100.00
60832;BME280;46665;51.558;-0.448;2023-02-18T07:04:22;101496.94;;;9.82;100.00
60832;BME280;46665;51.558;-0.448;2023-02-18T07:07:06;101495.59;;;9.85;100.00
60832;BME280;46665;51.558;-0.448;2023-02-18T07:09:50;101502.41;;;9.87;100.00
60832;BME280;46665;51.558;-0.448;2023-02-18T07:12:34;101503.81;;;9.90;100.00
60832;BME280;46665;51.558;-0.448;2023-02-18T07:15:18;101495.94;;;9.88;100.00
60832;BME280;46665;51.558;-0.448;2023-02-18T07:18:06;101488.59;;;9.89;100.00
60832;BME280;46665;51.558;-0.448;2023-02-18T07:20:50;101501.09;;;9.90;100.00
60832;BME280;46665;51.558;-0.448;2023-02-18T07:23:34;101509.00;;;9.91;100.00
60832;BME280;46665;51.558;-0.448;2023-02-18T07:26:18;101498.38;;;9.90;100.00
60832;BME280;46665;51.558;-0.448;2023-02-18T07:29:02;101512.88;;;9.95;100.00
60832;BME280;46665;51.558;-0.448;2023-02-18T07:31:46;101506.09;;;9.98;100.00
60832;BME280;46665;51.558;-0.448;2023-02-18T07:34:30;101526.47;;;9.95;100.00
60832;BME280;46665;51.558;-0.448;2023-02-18T07:37:14;101536.31;;;10.02;100.00
60832;BME280;46665;51.558;-0.448;2023-02-18T07:39:58;101527.00;;;9.97;100.00
60832;BME280;46665;51.558;-0.448;2023-02-18T07:42:42;101528.13;;;10.02;100.00
60832;BME280;46665;51.558;-0.448;2023-02-18T07:45:26;101534.97;;;10.04;100.00
60832;BME280;46665;51.558;-0.448;2023-02-18T07:48:10;101531.19;;;10.05;100.00
60832;BME280;46665;51.558;-0.448;2023-02-18T07:50:54;101520.31;;;10.05;100.00
60832;BME280;46665;51.558;-0.448;2023-02-18T07:53:39;101519.75;;;10.03;100.00
60832;BME280;46665;51.558;-0.448;2023-02-18T07:56:23;101531.72;;;10.07;100.00
60832;BME280;46665;51.558;-0.448;2023-02-18T07:59:08;101531.47;;;10.09;100.00
60832;BME280;46665;51.558;-0.448;2023-02-18T08:01:53;101537.75;;;10.09;100.00
60832;BME280;46665;51.558;-0.448;2023-02-18T08:04:37;101528.00;;;10.13;100.00
60832;BME280;46665;51.558;-0.448;2023-02-18T08:07:21;101509.50;;;10.10;100.00
60832;BME280;46665;51.558;-0.448;2023-02-18T08:10:06;101507.88;;;10.14;100.00
60832;BME280;46665;51.558;-0.448;2023-02-18T08:12:50;101541.09;;;10.16;100.00
60832;BME280;46665;51.558;-0.448;2023-02-18T08:15:34;101547.56;;;10.10;100.00
60832;BME280;46665;51.558;-0.448;2023-02-18T08:18:20;101546.22;;;10.13;100.00
60832;BME280;46665;51.558;-0.448;2023-02-18T08:21:04;101549.75;;;10.13;100.00
60832;BME280;46665;51.558;-0.448;2023-02-18T08:23:49;101557.91;;;10.13;100.00
60832;BME280;46665;51.558;-0.448;2023-02-18T08:26:32;101533.97;;;10.10;100.00
60832;BME280;46665;51.558;-0.448;2023-02-18T08:29:16;101559.31;;;10.16;100.00
60832;BME280;46665;51.558;-0.448;2023-02-18T08:32:00;101556.00;;;10.14;100.00
60832;BME280;46665;51.558;-0.448;2023-02-18T08:34:44;101563.94;;;10.15;100.00
60832;BME280;46665;51.558;-0.448;2023-02-18T08:37:29;101564.75;;;10.16;100.00
60832;BME280;46665;51.558;-0.448;2023-02-18T08:40:13;101571.56;;;10.18;100.00
60832;BME280;46665;51.558;-0.448;2023-02-18T08:42:58;101562.59;;;10.18;100.00
60832;BME280;46665;51.558;-0.448;2023-02-18T08:45:42;101573.78;;;10.22;100.00
60832;BME280;46665;51.558;-0.448;2023-02-18T08:48:29;101562.91;;;10.22;100.00
60832;BME280;46665;51.558;-0.448;2023-02-18T08:51:16;101557.97;;;10.18;100.00
60832;BME280;46665;51.558;-0.448;2023-02-18T08:54:01;101563.13;;;10.20;100.00
60832;BME280;46665;51.558;-0.448;2023-02-18T08:56:45;101553.59;;;10.17;100.00
60832;BME280;46665;51.558;-0.448;2023-02-18T08:59:29;101565.03;;;10.19;100.00
60832;BME280;46665;51.558;-0.448;2023-02-18T09:02:13;101564.22;;;10.19;100.00
60832;BME280;46665;51.558;-0.448;2023-02-18T09:04:57;101564.81;;;10.21;100.00
60832;BME280;46665;51.558;-0.448;2023-02-18T09:07:41;101562.31;;;10.19;100.00
60832;BME280;46665;51.558;-0.448;2023-02-18T09:10:25;101563.72;;;10.22;100.00
60832;BME280;46665;51.558;-0.448;2023-02-18T09:13:09;101563.47;;;10.24;100.00
60832;BME280;46665;51.558;-0.448;2023-02-18T09:15:58;101590.41;;;10.25;100.00
60832;BME280;46665;51.558;-0.448;2023-02-18T09:18:44;101592.88;;;10.27;100.00
60832;BME280;46665;51.558;-0.448;2023-02-18T09:21:28;101582.22;;;10.25;100.00
60832;BME280;46665;51.558;-0.448;2023-02-18T09:24:12;101588.84;;;10.29;100.00
60832;BME280;46665;51.558;-0.448;2023-02-18T09:26:55;101578.78;;;10.30;100.00
60832;BME280;46665;51.558;-0.448;2023-02-18T09:29:40;101591.06;;;10.32;100.00
60832;BME280;46665;51.558;-0.448;2023-02-18T09:32:24;101595.44;;;10.33;100.00
60832;BME280;46665;51.558;-0.448;2023-02-18T09:35:08;101598.16;;;10.33;100.00
60832;BME280;46665;51.558;-0.448;2023-02-18T09:37:53;101607.13;;;10.34;100.00
60832;BME280;46665;51.558;-0.448;2023-02-18T09:40:41;101594.91;;;10.36;100.00
60832;BME280;46665;51.558;-0.448;2023-02-18T09:43:32;101587.81;;;10.35;100.00
60832;BME280;46665;51.558;-0.448;2023-02-18T09:46:33;101598.75;;;10.40;100.00
60832;BME280;46665;51.558;-0.448;2023-02-18T09:49:30;101590.34;;;10.42;100.00
60832;BME280;46665;51.558;-0.448;2023-02-18T09:52:27;101600.69;;;10.45;100.00
60832;BME280;46665;51.558;-0.448;2023-02-18T09:55:24;101590.63;;;10.46;100.00
60832;BME280;46665;51.558;-0.448;2023-02-18T09:58:16;101595.81;;;10.47;100.00
60832;BME280;46665;51.558;-0.448;2023-02-18T10:03:49;101604.50;;;10.44;100.00
60832;BME280;46665;51.558;-0.448;2023-02-18T10:06:34;101609.63;;;10.40;100.00
60832;BME280;46665;51.558;-0.448;2023-02-18T10:09:28;101619.69;;;10.40;100.00
60832;BME280;46665;51.558;-0.448;2023-02-18T10:12:18;101600.06;;;10.38;100.00
60832;BME280;46665;51.558;-0.448;2023-02-18T10:15:02;101615.63;;;10.43;100.00
60832;BME280;46665;51.558;-0.448;2023-02-18T10:17:47;101615.69;;;10.48;100.00
60832;BME280;46665;51.558;-0.448;2023-02-18T10:20:31;101600.75;;;10.50;100.00
60832;BME280;46665;51.558;-0.448;2023-02-18T10:23:18;101612.78;;;10.54;100.00
60832;BME280;46665;51.558;-0.448;2023-02-18T10:26:05;101605.94;;;10.52;100.00
60832;BME280;46665;51.558;-0.448;2023-02-18T10:28:49;101602.69;;;10.55;100.00
60832;BME280;46665;51.558;-0.448;2023-02-18T10:31:40;101614.41;;;10.55;100.00
60832;BME280;46665;51.558;-0.448;2023-02-18T10:46:15;101607.13;;;10.61;100.00
60832;BME280;46665;51.558;-0.448;2023-02-18T10:49:13;101608.19;;;10.60;100.00
60832;BME280;46665;51.558;-0.448;2023-02-18T10:52:13;101617.19;;;10.60;100.00
60832;BME280;46665;51.558;-0.448;2023-02-18T10:55:06;101626.25;;;10.66;100.00
60832;BME280;46665;51.558;-0.448;2023-02-18T10:57:54;101630.06;;;10.70;100.00
60832;BME280;46665;51.558;-0.448;2023-02-18T11:00:38;101633.59;;;10.71;100.00
60832;BME280;46665;51.558;-0.448;2023-02-18T11:03:25;101636.09;;;10.72;100.00
60832;BME280;46665;51.558;-0.448;2023-02-18T11:06:32;101634.19;;;10.73;100.00
60832;BME280;46665;51.558;-0.448;2023-02-18T11:09:35;101641.81;;;10.76;100.00
60832;BME280;46665;51.558;-0.448;2023-02-18T11:12:25;101641.34;;;10.79;100.00
60832;BME280;46665;51.558;-0.448;2023-02-18T11:21:31;101644.91;;;10.84;100.00
60832;BME280;46665;51.558;-0.448;2023-02-18T11:24:18;101645.16;;;10.83;100.00
60832;BME280;46665;51.558;-0.448;2023-02-18T11:27:08;101632.13;;;10.85;100.00
60832;BME280;46665;51.558;-0.448;2023-02-18T11:29:58;101635.66;;;10.85;100.00
60832;BME280;46665;51.558;-0.448;2023-02-18T11:32:44;101637.03;;;10.88;100.00
60832;BME280;46665;51.558;-0.448;2023-02-18T11:35:31;101636.78;;;10.90;100.00
60832;BME280;46665;51.558;-0.448;2023-02-18T11:41:09;101633.53;;;10.93;100.00
60832;BME280;46665;51.558;-0.448;2023-02-18T11:43:54;101643.09;;;10.95;100.00
60832;BME280;46665;51.558;-0.448;2023-02-18T11:46:55;101630.28;;;10.96;100.00
60832;BME280;46665;51.558;-0.448;2023-02-18T11:49:41;101629.22;;;10.97;100.00
60832;BME280;46665;51.558;-0.448;2023-02-18T11:52:34;101624.34;;;10.99;100.00
60832;BME280;46665;51.558;-0.448;2023-02-18T11:55:21;101618.63;;;11.00;100.00
60832;BME280;46665;51.558;-0.448;2023-02-18T11:58:09;101625.22;;;11.04;100.00
60832;BME280;46665;51.558;-0.448;2023-02-18T12:00:55;101630.94;;;11.08;100.00
60832;BME280;46665;51.558;-0.448;2023-02-18T12:03:47;101628.78;;;11.10;100.00
60832;BME280;46665;51.558;-0.448;2023-02-18T12:07:11;101624.47;;;11.14;100.00
60832;BME280;46665;51.558;-0.448;2023-02-18T12:10:04;101620.97;;;11.24;100.00
60832;BME280;46665;51.558;-0.448;2023-02-18T12:19:17;101617.25;;;11.35;100.00
60832;BME280;46665;51.558;-0.448;2023-02-18T12:25:32;101616.72;;;11.38;100.00
60832;BME280;46665;51.558;-0.448;2023-02-18T12:37:44;101615.72;;;11.49;100.00
60832;BME280;46665;51.558;-0.448;2023-02-18T12:40:39;101611.38;;;11.54;100.00
60832;BME280;46665;51.558;-0.448;2023-02-18T12:51:03;101605.75;;;11.70;100.00
60832;BME280;46665;51.558;-0.448;2023-02-18T13:11:45;101598.84;;;12.10;100.00
60832;BME280;46665;51.558;-0.448;2023-02-18T13:14:33;101595.56;;;12.08;100.00
60832;BME280;46665;51.558;-0.448;2023-02-18T13:17:22;101601.25;;;12.02;100.00
60832;BME280;46665;51.558;-0.448;2023-02-18T13:20:21;101595.25;;;12.00;100.00
60832;BME280;46665;51.558;-0.448;2023-02-18T13:23:15;101591.44;;;11.96;100.00
60832;BME280;46665;51.558;-0.448;2023-02-18T13:26:02;101595.22;;;11.95;100.00
60832;BME280;46665;51.558;-0.448;2023-02-18T13:32:02;101586.16;;;11.84;100.00
60832;BME280;46665;51.558;-0.448;2023-02-18T13:41:06;101568.50;;;11.91;100.00
60832;BME280;46665;51.558;-0.448;2023-02-18T13:43:51;101565.75;;;11.91;100.00
60832;BME280;46665;51.558;-0.448;2023-02-18T13:47:01;101563.06;;;11.97;100.00
60832;BME280;46665;51.558;-0.448;2023-02-18T13:49:45;101549.41;;;11.97;100.00
60832;BME280;46665;51.558;-0.448;2023-02-18T13:52:30;101548.88;;;12.00;100.00
60832;BME280;46665;51.558;-0.448;2023-02-18T13:55:20;101546.16;;;12.00;100.00
60832;BME280;46665;51.558;-0.448;2023-02-18T13:58:18;101543.72;;;12.03;100.00
60832;BME280;46665;51.558;-0.448;2023-02-18T14:03:55;101530.34;;;12.12;100.00
60832;BME280;46665;51.558;-0.448;2023-02-18T14:21:35;101531.69;;;11.94;100.00
60832;BME280;46665;51.558;-0.448;2023-02-18T14:24:43;101536.81;;;11.85;100.00
60832;BME280;46665;51.558;-0.448;2023-02-18T14:27:29;101537.31;;;11.82;100.00
60832;BME280;46665;51.558;-0.448;2023-02-18T14:33:03;101541.94;;;11.77;100.00
60832;BME280;46665;51.558;-0.448;2023-02-18T14:36:05;101542.50;;;11.79;100.00
60832;BME280;46665;51.558;-0.448;2023-02-18T14:39:07;101532.41;;;11.79;100.00
60832;BME280;46665;51.558;-0.448;2023-02-18T14:42:14;101546.59;;;11.81;100.00
60832;BME280;46665;51.558;-0.448;2023-02-18T14:45:09;101543.06;;;11.81;100.00
60832;BME280;46665;51.558;-0.448;2023-02-18T14:50:52;101551.25;;;11.86;100.00
60832;BME280;46665;51.558;-0.448;2023-02-18T14:53:43;101533.25;;;11.85;100.00
60832;BME280;46665;51.558;-0.448;2023-02-18T14:56:27;101534.59;;;11.82;100.00
60832;BME280;46665;51.558;-0.448;2023-02-18T14:59:12;101538.47;;;11.86;100.00
60832;BME280;46665;51.558;-0.448;2023-02-18T15:01:57;101538.16;;;11.83;100.00
60832;BME280;46665;51.558;-0.448;2023-02-18T15:04:41;101526.72;;;11.81;100.00
60832;BME280;46665;51.558;-0.448;2023-02-18T15:07:25;101521.50;;;11.74;100.00
60832;BME280;46665;51.558;-0.448;2023-02-18T15:10:14;101521.25;;;11.76;100.00
60832;BME280;46665;51.558;-0.448;2023-02-18T15:13:03;101522.06;;;11.76;100.00
60832;BME280;46665;51.558;-0.448;2023-02-18T15:15:52;101515.22;;;11.74;100.00
60832;BME280;46665;51.558;-0.448;2023-02-18T15:18:43;101518.22;;;11.72;100.00
60832;BME280;46665;51.558;-0.448;2023-02-18T15:21:39;101517.13;;;11.73;100.00
60832;BME280;46665;51.558;-0.448;2023-02-18T15:24:33;101514.66;;;11.71;100.00
60832;BME280;46665;51.558;-0.448;2023-02-18T15:27:21;101514.13;;;11.75;100.00
60832;BME280;46665;51.558;-0.448;2023-02-18T15:32:58;101503.22;;;11.75;100.00
60832;BME280;46665;51.558;-0.448;2023-02-18T15:35:42;101509.50;;;11.75;100.00
60832;BME280;46665;51.558;-0.448;2023-02-18T15:38:26;101504.88;;;11.76;100.00
60832;BME280;46665;51.558;-0.448;2023-02-18T15:41:13;101498.06;;;11.78;100.00
60832;BME280;46665;51.558;-0.448;2023-02-18T15:44:03;101482.25;;;11.75;100.00
60832;BME280;46665;51.558;-0.448;2023-02-18T15:46:49;101500.22;;;11.76;100.00
60832;BME280;46665;51.558;-0.448;2023-02-18T15:49:36;101497.25;;;11.78;100.00
60832;BME280;46665;51.558;-0.448;2023-02-18T15:52:26;101483.31;;;11.74;99.65
60832;BME280;46665;51.558;-0.448;2023-02-18T15:55:24;101480.56;;;11.69;100.00
60832;BME280;46665;51.558;-0.448;2023-02-18T15:58:26;101482.47;;;11.63;100.00
60832;BME280;46665;51.558;-0.448;2023-02-18T16:01:26;101485.75;;;11.65;100.00
60832;BME280;46665;51.558;-0.448;2023-02-18T16:04:12;101489.03;;;11.62;100.00
60832;BME280;46665;51.558;-0.448;2023-02-18T16:07:02;101481.91;;;11.61;100.00
60832;BME280;46665;51.558;-0.448;2023-02-18T16:09:46;101480.84;;;11.57;100.00
60832;BME280;46665;51.558;-0.448;2023-02-18T16:12:31;101491.19;;;11.55;100.00
60832;BME280;46665;51.558;-0.448;2023-02-18T16:15:24;101489.25;;;11.56;100.00
60832;BME280;46665;51.558;-0.448;2023-02-18T16:18:26;101489.25;;;11.56;100.00
60832;BME280;46665;51.558;-0.448;2023-02-18T16:24:02;101507.78;;;11.54;100.00
60832;BME280;46665;51.558;-0.448;2023-02-18T16:27:00;101511.06;;;11.50;100.00
60832;BME280;46665;51.558;-0.448;2023-02-18T16:29:49;101508.34;;;11.56;100.00
60832;BME280;46665;51.558;-0.448;2023-02-18T16:32:33;101511.06;;;11.56;100.00
60832;BME280;46665;51.558;-0.448;2023-02-18T16:35:21;101487.63;;;11.55;100.00
60832;BME280;46665;51.558;-0.448;2023-02-18T16:38:06;101502.91;;;11.56;100.00